createdAt,value
2023-05-16T00:01:40.332Z,6.55
2023-05-16T00:04:05.202Z,6.28
2023-05-16T00:06:30.172Z,6.53
2023-05-16T00:08:54.672Z,6.47
2023-05-16T00:11:21.882Z,6.30
2023-05-16T00:13:47.846Z,6.80
2023-05-16T00:16:14.694Z,6.07
2023-05-16T00:18:39.622Z,6.60
2023-05-16T00:21:04.777Z,6.35
2023-05-16T00:23:29.311Z,6.13
2023-05-16T00:25:53.856Z,5.85
2023-05-16T00:28:20.036Z,6.20
2023-05-16T00:30:44.582Z,6.30
2023-05-16T00:33:09.175Z,6.47
2023-05-16T00:35:33.907Z,6.28
2023-05-16T00:37:58.459Z,6.40
2023-05-16T00:40:23.129Z,6.65
2023-05-16T00:42:47.705Z,6.68
2023-05-16T00:45:13.784Z,6.63
2023-05-16T00:47:38.575Z,6.90
2023-05-16T00:50:04.668Z,7.03
2023-05-16T00:52:33.713Z,7.38
2023-05-16T00:54:58.903Z,6.82
2023-05-16T00:57:23.544Z,7.15
2023-05-16T00:59:48.824Z,7.53
2023-05-16T01:02:17.109Z,7.68
2023-05-16T01:04:44.496Z,7.88
2023-05-16T01:07:09.096Z,7.50
2023-05-16T01:09:34.080Z,7.30
2023-05-16T01:12:11.215Z,7.32
2023-05-16T01:14:45.224Z,8.13
2023-05-16T01:17:19.160Z,7.30
2023-05-16T01:19:54.546Z,7.10
2023-05-16T01:22:31.239Z,7.38
2023-05-16T01:25:06.551Z,8.00
2023-05-16T01:27:34.553Z,8.18
2023-05-16T01:30:16.133Z,7.95
2023-05-16T01:32:40.976Z,6.90
2023-05-16T01:35:08.090Z,7.15
2023-05-16T01:37:38.717Z,7.30
2023-05-16T01:40:10.346Z,7.07
2023-05-16T01:42:40.866Z,7.78
2023-05-16T01:45:10.061Z,7.30
2023-05-16T01:47:41.373Z,8.32
2023-05-16T01:50:19.224Z,7.43
2023-05-16T01:52:50.769Z,7.68
2023-05-16T01:55:20.179Z,7.47
2023-05-16T01:57:47.554Z,7.20
2023-05-16T02:00:13.382Z,7.90
2023-05-16T02:02:42.295Z,8.02
2023-05-16T02:05:10.411Z,7.97
2023-05-16T02:07:35.549Z,8.07
2023-05-16T02:10:00.929Z,8.95
2023-05-16T02:12:26.428Z,7.13
2023-05-16T02:14:52.684Z,8.52
2023-05-16T02:17:17.658Z,7.80
2023-05-16T02:19:42.300Z,7.88
2023-05-16T02:22:10.498Z,8.40
2023-05-16T02:24:35.153Z,8.30
2023-05-16T02:27:00.191Z,7.70
2023-05-16T02:29:24.991Z,8.13
2023-05-16T02:31:54.012Z,8.40
2023-05-16T02:34:18.494Z,8.73
2023-05-16T02:36:42.980Z,7.20
2023-05-16T02:39:09.732Z,9.32
2023-05-16T02:41:34.427Z,8.27
2023-05-16T02:43:58.842Z,9.40
2023-05-16T02:46:25.305Z,8.07
2023-05-16T02:48:52.116Z,9.02
2023-05-16T02:51:16.663Z,8.40
2023-05-16T02:53:41.216Z,8.10
2023-05-16T02:56:07.175Z,9.15
2023-05-16T02:58:31.579Z,9.32
2023-05-16T03:00:56.154Z,9.73
2023-05-16T03:03:20.716Z,9.07
2023-05-16T03:05:47.582Z,9.90
2023-05-16T03:08:12.612Z,10.63
2023-05-16T03:10:37.258Z,9.63
2023-05-16T03:13:01.779Z,10.25
2023-05-16T03:15:26.971Z,9.68
2023-05-16T03:17:51.733Z,9.60
2023-05-16T03:20:16.563Z,9.50
2023-05-16T03:22:42.563Z,9.93
2023-05-16T03:25:09.163Z,10.75
2023-05-16T03:27:39.451Z,10.45
2023-05-16T03:30:04.053Z,10.52
2023-05-16T03:32:29.725Z,10.43
2023-05-16T03:34:54.512Z,11.40
2023-05-16T03:37:19.164Z,10.40
2023-05-16T03:39:45.254Z,9.02
2023-05-16T03:42:10.080Z,10.65
2023-05-16T03:44:34.702Z,10.20
2023-05-16T03:46:59.175Z,11.23
2023-05-16T03:49:28.052Z,11.20
2023-05-16T03:51:52.559Z,11.02
2023-05-16T03:54:17.551Z,11.00
2023-05-16T03:56:43.399Z,10.70
2023-05-16T03:59:07.925Z,10.55
2023-05-16T04:01:32.620Z,11.00
2023-05-16T04:03:57.172Z,10.48
2023-05-16T04:06:22.262Z,10.20
2023-05-16T04:08:46.937Z,10.70
2023-05-16T04:11:11.397Z,10.68
2023-05-16T04:13:37.241Z,10.82
2023-05-16T04:16:01.903Z,10.95
2023-05-16T04:18:26.595Z,11.35
2023-05-16T04:20:51.203Z,11.07
2023-05-16T04:23:16.141Z,11.45
2023-05-16T04:25:40.786Z,10.90
2023-05-16T04:28:05.903Z,12.32
2023-05-16T04:30:32.049Z,11.88
2023-05-16T04:32:57.414Z,10.93
2023-05-16T04:35:22.960Z,11.15
2023-05-16T04:37:47.529Z,10.52
2023-05-16T04:40:14.497Z,9.85
2023-05-16T04:42:39.436Z,11.48
2023-05-16T04:45:06.489Z,10.40
2023-05-16T04:47:32.568Z,10.95
2023-05-16T04:49:57.090Z,11.55
2023-05-16T04:52:22.137Z,10.75
2023-05-16T04:54:46.644Z,10.75
2023-05-16T04:57:17.149Z,11.40
2023-05-16T04:59:41.752Z,11.85
2023-05-16T05:02:07.930Z,10.98
2023-05-16T05:04:34.130Z,10.40
2023-05-16T05:06:58.892Z,11.32
2023-05-16T05:09:23.883Z,11.02
2023-05-16T05:11:48.473Z,10.15
2023-05-16T05:14:13.071Z,8.00
2023-05-16T05:16:38.222Z,10.82
2023-05-16T05:19:03.780Z,10.50
2023-05-16T05:21:30.851Z,10.50
2023-05-16T05:23:55.474Z,10.35
2023-05-16T05:26:22.316Z,10.18
2023-05-16T05:28:53.717Z,9.45
2023-05-16T05:31:22.156Z,10.60
2023-05-16T05:33:46.636Z,11.60
2023-05-16T05:36:11.590Z,9.05
2023-05-16T05:38:37.880Z,10.20
2023-05-16T05:41:02.523Z,10.02
2023-05-16T05:43:26.990Z,9.40
2023-05-16T05:45:51.712Z,10.23
2023-05-16T05:48:16.419Z,9.40
2023-05-16T05:50:41.135Z,9.05
2023-05-16T05:53:05.881Z,8.55
2023-05-16T05:55:31.978Z,9.13
2023-05-16T05:57:56.490Z,8.20
2023-05-16T06:00:21.687Z,8.30
2023-05-16T06:02:46.407Z,8.75
2023-05-16T06:05:11.311Z,7.97
2023-05-16T06:07:35.842Z,8.45
2023-05-16T06:10:05.114Z,8.30
2023-05-16T06:12:31.618Z,8.25
2023-05-16T06:14:56.261Z,8.57
2023-05-16T06:17:20.980Z,8.13
2023-05-16T06:19:45.612Z,8.25
2023-05-16T06:22:10.190Z,7.63
2023-05-16T06:24:34.739Z,8.88
2023-05-16T06:26:59.404Z,8.18
2023-05-16T06:29:25.473Z,8.05
2023-05-16T06:31:50.440Z,7.93
2023-05-16T06:34:15.059Z,7.65
2023-05-16T06:36:39.598Z,8.18
2023-05-16T06:39:05.025Z,8.05
2023-05-16T06:41:29.633Z,7.57
2023-05-16T06:43:54.361Z,7.95
2023-05-16T06:46:20.475Z,8.73
2023-05-16T06:48:45.204Z,8.05
2023-05-16T06:51:10.055Z,7.00
2023-05-16T06:53:34.664Z,6.82
2023-05-16T06:55:59.378Z,7.30
2023-05-16T06:58:23.970Z,6.68
2023-05-16T07:00:50.422Z,7.57
2023-05-16T07:03:16.554Z,6.53
2023-05-16T07:05:41.965Z,6.63
2023-05-16T07:08:08.079Z,6.78
2023-05-16T07:10:32.964Z,6.78
2023-05-16T07:12:59.088Z,5.72
2023-05-16T07:15:23.662Z,6.13
2023-05-16T07:17:50.993Z,5.53
2023-05-16T07:20:17.195Z,5.25
2023-05-16T07:22:42.109Z,5.43
2023-05-16T07:25:12.668Z,5.43
2023-05-16T07:27:37.674Z,4.82
2023-05-16T07:30:02.428Z,6.03
2023-05-16T07:32:30.016Z,6.25
2023-05-16T07:34:54.720Z,5.93
2023-05-16T07:37:20.906Z,6.07
2023-05-16T07:39:45.537Z,5.38
2023-05-16T07:42:10.920Z,5.70
2023-05-16T07:44:36.137Z,5.38
2023-05-16T07:47:01.153Z,5.20
2023-05-16T07:49:26.098Z,5.18
2023-05-16T07:51:50.755Z,5.35
2023-05-16T07:54:16.673Z,5.20
2023-05-16T07:56:41.264Z,5.32
2023-05-16T07:59:06.117Z,5.93
2023-05-16T08:01:30.939Z,5.65
2023-05-16T08:03:58.752Z,5.45
2023-05-16T08:06:24.271Z,4.75
2023-05-16T08:08:48.918Z,4.72
2023-05-16T08:11:15.049Z,4.70
2023-05-16T08:13:39.619Z,4.63
2023-05-16T08:16:04.441Z,5.30
2023-05-16T08:18:29.483Z,4.95
2023-05-16T08:20:54.398Z,5.18
2023-05-16T08:23:18.984Z,5.43
2023-05-16T08:25:43.630Z,4.80
2023-05-16T08:28:09.726Z,5.93
2023-05-16T08:30:34.311Z,5.13
2023-05-16T08:32:59.075Z,5.50
2023-05-16T08:35:23.646Z,5.80
2023-05-16T08:37:48.125Z,5.32
2023-05-16T08:40:15.500Z,5.30
2023-05-16T08:42:41.462Z,5.22
2023-05-16T08:45:10.115Z,4.65
2023-05-16T08:47:36.838Z,5.25
2023-05-16T08:50:04.157Z,4.55
2023-05-16T08:52:33.553Z,5.20
2023-05-16T08:55:09.933Z,5.45
2023-05-16T08:57:37.897Z,4.30
2023-05-16T09:00:07.543Z,4.47
2023-05-16T09:02:34.024Z,4.55
2023-05-16T09:04:59.788Z,4.70
2023-05-16T09:07:25.054Z,4.80
2023-05-16T09:09:50.221Z,4.35
2023-05-16T09:12:14.965Z,5.35
2023-05-16T09:14:39.589Z,4.68
2023-05-16T09:17:10.815Z,4.90
2023-05-16T09:19:42.051Z,4.95
2023-05-16T09:22:08.745Z,5.15
2023-05-16T09:24:33.453Z,4.30
2023-05-16T09:26:58.418Z,4.47
2023-05-16T09:29:23.956Z,4.30
2023-05-16T09:31:55.578Z,4.30
2023-05-16T09:34:24.180Z,4.97
2023-05-16T09:36:58.054Z,4.00
2023-05-16T09:39:23.017Z,4.88
2023-05-16T09:41:48.723Z,4.70
2023-05-16T09:44:14.294Z,4.43
2023-05-16T09:46:40.764Z,5.00
2023-05-16T09:49:06.548Z,4.28
2023-05-16T09:51:31.974Z,4.97
2023-05-16T09:54:00.733Z,4.47
2023-05-16T09:56:26.313Z,4.18
2023-05-16T09:58:53.850Z,4.85
2023-05-16T10:01:18.762Z,5.35
2023-05-16T10:03:44.409Z,4.35
2023-05-16T10:06:11.363Z,3.75
2023-05-16T10:08:38.663Z,4.53
2023-05-16T10:11:07.149Z,4.15
2023-05-16T10:13:34.035Z,3.77
2023-05-16T10:16:01.812Z,4.03
2023-05-16T10:18:31.553Z,4.20
2023-05-16T10:20:59.182Z,3.78
2023-05-16T10:23:26.768Z,4.70
2023-05-16T10:25:51.508Z,4.13
2023-05-16T10:28:21.832Z,4.10
2023-05-16T10:30:48.152Z,4.35
2023-05-16T10:33:13.875Z,4.40
2023-05-16T10:35:42.251Z,5.20
2023-05-16T10:38:09.425Z,3.42
2023-05-16T10:40:35.111Z,3.88
2023-05-16T10:43:00.392Z,3.95
2023-05-16T10:45:27.459Z,4.13
2023-05-16T10:47:56.935Z,4.40
2023-05-16T10:50:39.498Z,3.97
2023-05-16T10:53:19.759Z,3.65
2023-05-16T10:55:52.174Z,4.13
2023-05-16T10:58:24.502Z,3.60
2023-05-16T11:00:51.367Z,3.67
2023-05-16T11:03:28.584Z,4.03
2023-05-16T11:05:55.796Z,3.60
2023-05-16T11:08:20.529Z,4.10
2023-05-16T11:10:45.395Z,4.10
2023-05-16T11:13:10.168Z,4.28
2023-05-16T11:15:34.933Z,4.03
2023-05-16T11:18:12.274Z,3.92
2023-05-16T11:20:38.504Z,3.97
2023-05-16T11:23:24.540Z,4.05
2023-05-16T11:25:51.303Z,4.68
2023-05-16T11:28:16.812Z,3.50
2023-05-16T11:30:44.817Z,4.00
2023-05-16T11:33:12.997Z,3.35
2023-05-16T11:35:38.227Z,4.00
2023-05-16T11:38:02.917Z,4.32
2023-05-16T11:40:28.475Z,3.80
2023-05-16T11:42:53.121Z,4.07
2023-05-16T11:45:18.949Z,3.53
2023-05-16T11:47:44.576Z,3.85
2023-05-16T11:50:14.273Z,4.63
2023-05-16T11:52:39.730Z,3.50
2023-05-16T11:55:06.448Z,3.63
2023-05-16T11:57:31.321Z,3.50
2023-05-16T11:59:56.272Z,4.13
2023-05-16T12:02:20.947Z,4.15
2023-05-16T12:04:48.953Z,3.88
2023-05-16T12:07:15.193Z,4.07
2023-05-16T12:09:40.207Z,3.53
2023-05-16T12:12:07.294Z,3.67
2023-05-16T12:14:32.102Z,3.45
2023-05-16T12:16:57.418Z,4.18
2023-05-16T12:19:22.808Z,4.53
2023-05-16T12:21:50.894Z,4.28
2023-05-16T12:24:17.837Z,4.07
2023-05-16T12:26:44.719Z,3.42
2023-05-16T12:29:11.590Z,3.90
2023-05-16T12:31:39.468Z,3.60
2023-05-16T12:34:04.536Z,4.57
2023-05-16T12:36:34.183Z,4.47
2023-05-16T12:39:03.914Z,3.47
2023-05-16T12:41:32.896Z,4.30
2023-05-16T12:44:08.895Z,4.13
2023-05-16T12:46:33.676Z,3.78
2023-05-16T12:49:05.835Z,3.58
2023-05-16T12:51:34.637Z,3.95
2023-05-16T12:54:10.388Z,3.72
2023-05-16T12:56:41.160Z,4.07
2023-05-16T12:59:06.467Z,4.30
2023-05-16T13:01:31.141Z,4.07
2023-05-16T13:03:56.354Z,3.85
2023-05-16T13:06:21.865Z,3.80
2023-05-16T13:08:46.619Z,3.72
2023-05-16T13:11:11.476Z,3.67
2023-05-16T13:13:37.847Z,4.50
2023-05-16T13:16:02.532Z,3.70
2023-05-16T13:18:27.375Z,3.85
2023-05-16T13:20:53.055Z,3.55
2023-05-16T13:23:17.996Z,4.05
2023-05-16T13:25:53.953Z,4.28
2023-05-16T13:28:19.583Z,4.40
2023-05-16T13:30:45.919Z,3.95
2023-05-16T13:33:10.956Z,4.15
2023-05-16T13:35:35.727Z,3.80
2023-05-16T13:38:00.835Z,4.28
2023-05-16T13:40:25.532Z,4.88
2023-05-16T13:42:50.229Z,4.70
2023-05-16T13:45:14.965Z,3.72
2023-05-16T13:47:41.699Z,5.53
2023-05-16T13:50:10.370Z,4.45
2023-05-16T13:52:37.719Z,4.30
2023-05-16T13:55:03.722Z,4.75
2023-05-16T13:57:29.129Z,5.97
2023-05-16T14:00:17.578Z,4.53
2023-05-16T14:02:40.749Z,4.80
2023-05-16T14:05:05.810Z,4.03
2023-05-16T14:07:30.480Z,3.92
2023-05-16T14:09:55.192Z,3.90
2023-05-16T14:12:20.542Z,3.75
2023-05-16T14:14:45.893Z,4.18
2023-05-16T14:17:10.849Z,3.42
2023-05-16T14:19:38.285Z,3.80
2023-05-16T14:22:03.128Z,4.20
2023-05-16T14:24:27.988Z,3.78
2023-05-16T14:26:58.517Z,3.80
2023-05-16T14:29:25.956Z,3.95
2023-05-16T14:31:51.281Z,3.70
2023-05-16T14:34:17.148Z,4.10
2023-05-16T14:36:43.952Z,3.72
2023-05-16T14:39:09.292Z,4.00
2023-05-16T14:41:33.883Z,4.28
2023-05-16T14:43:58.620Z,4.47
2023-05-16T14:46:25.954Z,4.38
2023-05-16T14:48:51.429Z,3.97
2023-05-16T14:51:16.715Z,4.65
2023-05-16T14:53:45.283Z,4.32
2023-05-16T14:56:11.367Z,3.80
2023-05-16T14:58:36.159Z,3.92
2023-05-16T15:01:00.927Z,3.30
2023-05-16T15:03:25.703Z,3.78
2023-05-16T15:05:51.297Z,3.90
2023-05-16T15:08:19.583Z,3.78
2023-05-16T15:10:46.116Z,3.65
2023-05-16T15:13:11.166Z,3.60
2023-05-16T15:15:38.889Z,4.13
2023-05-16T15:18:03.579Z,3.60
2023-05-16T15:20:29.273Z,3.88
2023-05-16T15:22:56.449Z,3.85
2023-05-16T15:25:21.152Z,4.03
2023-05-16T15:27:47.509Z,3.75
2023-05-16T15:30:16.426Z,3.88
2023-05-16T15:32:41.965Z,3.63
2023-05-16T15:35:07.993Z,3.40
2023-05-16T15:37:33.098Z,3.35
2023-05-16T15:39:58.282Z,4.47
2023-05-16T15:42:23.424Z,3.72
2023-05-16T15:44:49.536Z,4.03
2023-05-16T15:47:14.312Z,3.45
2023-05-16T15:49:39.238Z,4.50
2023-05-16T15:52:03.984Z,3.67
2023-05-16T15:54:29.790Z,3.67
2023-05-16T15:56:57.058Z,4.32
2023-05-16T15:59:22.102Z,5.35
2023-05-16T16:01:48.531Z,4.57
2023-05-16T16:04:13.663Z,3.78
2023-05-16T16:06:38.833Z,3.88
2023-05-16T16:09:04.163Z,4.68
2023-05-16T16:11:28.935Z,4.22
2023-05-16T16:13:53.886Z,4.50
2023-05-16T16:16:18.993Z,4.50
2023-05-16T16:18:45.986Z,5.45
2023-05-16T16:21:11.339Z,5.72
2023-05-16T16:23:36.837Z,6.05
2023-05-16T16:26:02.458Z,5.05
2023-05-16T16:28:27.995Z,5.13
2023-05-16T16:30:53.143Z,4.85
2023-05-16T16:33:18.774Z,4.85
2023-05-16T16:35:44.756Z,5.40
2023-05-16T16:38:09.817Z,4.70
2023-05-16T16:40:34.702Z,5.25
2023-05-16T16:42:59.954Z,5.40
2023-05-16T16:45:25.547Z,4.28
2023-05-16T16:47:51.597Z,4.88
2023-05-16T16:50:16.924Z,5.40
2023-05-16T16:52:43.301Z,4.55
2023-05-16T16:55:09.040Z,5.30
2023-05-16T16:57:34.295Z,4.45
2023-05-16T17:00:00.805Z,5.72
2023-05-16T17:02:25.802Z,4.55
2023-05-16T17:04:51.174Z,4.63
2023-05-16T17:07:16.105Z,4.78
2023-05-16T17:09:43.175Z,4.68
2023-05-16T17:12:14.954Z,4.60
2023-05-16T17:14:40.012Z,4.00
2023-05-16T17:17:05.717Z,4.03
2023-05-16T17:19:30.879Z,3.80
2023-05-16T17:21:56.148Z,4.00
2023-05-16T17:24:21.268Z,4.78
2023-05-16T17:26:50.815Z,4.40
2023-05-16T17:29:17.224Z,4.72
2023-05-16T17:31:42.505Z,5.28
2023-05-16T17:34:08.098Z,5.40
2023-05-16T17:36:32.946Z,4.85
2023-05-16T17:38:58.870Z,5.25
2023-05-16T17:41:23.674Z,5.57
2023-05-16T17:43:50.053Z,5.88
2023-05-16T17:46:14.662Z,6.45
2023-05-16T17:48:39.721Z,6.20
2023-05-16T17:51:06.836Z,8.68
2023-05-16T17:53:31.434Z,8.00
2023-05-16T17:55:56.030Z,7.82
2023-05-16T17:58:21.210Z,7.90
2023-05-16T18:00:48.576Z,7.00
2023-05-16T18:03:13.372Z,8.55
2023-05-16T18:05:38.121Z,8.88
2023-05-16T18:08:03.064Z,7.88
2023-05-16T18:10:36.871Z,8.90
2023-05-16T18:13:15.629Z,8.23
2023-05-16T18:15:40.805Z,7.30
2023-05-16T18:18:07.707Z,8.13
2023-05-16T18:20:32.756Z,7.05
2023-05-16T18:22:57.963Z,7.25
2023-05-16T18:25:27.863Z,6.53
2023-05-16T18:30:16.848Z,7.70
2023-05-16T18:32:42.028Z,6.57
2023-05-16T18:35:08.897Z,6.93
2023-05-16T18:37:33.676Z,6.30
2023-05-16T18:39:58.491Z,6.68
2023-05-16T18:42:23.592Z,6.57
2023-05-16T18:44:48.484Z,6.15
2023-05-16T18:47:16.245Z,6.55
2023-05-16T18:49:43.698Z,5.88
2023-05-16T18:52:26.519Z,6.80
2023-05-16T18:54:54.484Z,6.85
2023-05-16T18:57:19.510Z,6.78
2023-05-16T18:59:53.473Z,7.03
2023-05-16T19:02:24.428Z,6.35
2023-05-16T19:04:58.129Z,6.80
2023-05-16T19:07:25.963Z,7.15
2023-05-16T19:09:50.912Z,5.82
2023-05-16T19:12:15.370Z,7.15
2023-05-16T19:14:40.148Z,7.00
2023-05-16T19:17:07.866Z,7.28
2023-05-16T19:19:35.902Z,6.60
2023-05-16T19:22:03.315Z,7.75
2023-05-16T19:24:32.540Z,7.00
2023-05-16T19:26:57.626Z,7.07
2023-05-16T19:29:24.103Z,7.63
2023-05-16T19:31:48.784Z,8.10
2023-05-16T19:34:13.634Z,7.22
2023-05-16T19:36:38.329Z,8.55
2023-05-16T19:39:03.293Z,7.45
2023-05-16T19:41:29.667Z,7.47
2023-05-16T19:43:55.330Z,7.05
2023-05-16T19:46:20.709Z,8.02
2023-05-16T19:48:47.971Z,7.70
2023-05-16T19:51:12.816Z,8.07
2023-05-16T19:53:37.589Z,8.70
2023-05-16T19:56:04.513Z,8.73
2023-05-16T19:58:30.697Z,8.23
2023-05-16T20:00:56.695Z,9.27
2023-05-16T20:03:23.614Z,7.57
2023-05-16T20:05:48.256Z,8.45
2023-05-16T20:08:13.072Z,9.07
2023-05-16T20:10:39.881Z,8.25
2023-05-16T20:13:31.401Z,8.77
2023-05-16T20:16:12.896Z,10.05
2023-05-16T20:18:37.966Z,9.43
2023-05-16T20:21:03.019Z,9.38
2023-05-16T20:23:27.719Z,9.45
2023-05-16T20:25:52.408Z,7.95
2023-05-16T20:28:18.198Z,8.05
2023-05-16T20:30:43.269Z,7.90
2023-05-16T20:33:09.464Z,8.80
2023-05-16T20:35:34.252Z,7.40
2023-05-16T20:37:59.344Z,9.25
2023-05-16T20:40:24.005Z,10.02
2023-05-16T20:42:48.889Z,9.13
2023-05-16T20:45:13.495Z,8.48
2023-05-16T20:47:38.772Z,9.30
2023-05-16T20:50:05.173Z,10.05
2023-05-16T20:52:31.798Z,8.95
2023-05-16T20:54:58.262Z,8.88
2023-05-16T20:57:24.424Z,9.43
2023-05-16T20:59:49.075Z,10.20
2023-05-16T21:02:16.304Z,9.45
2023-05-16T21:04:41.073Z,9.05
2023-05-16T21:07:11.331Z,9.07
2023-05-16T21:09:37.113Z,11.10
2023-05-16T21:12:05.886Z,9.35
2023-05-16T21:14:30.868Z,9.98
2023-05-16T21:16:55.453Z,9.27
2023-05-16T21:19:20.229Z,10.43
2023-05-16T21:21:46.599Z,10.13
2023-05-16T21:24:12.611Z,11.32
2023-05-16T21:26:37.235Z,10.75
2023-05-16T21:29:02.773Z,11.20
2023-05-16T21:31:28.627Z,10.82
2023-05-16T21:33:53.682Z,11.18
2023-05-16T21:36:18.780Z,9.60
2023-05-16T21:38:43.489Z,10.43
2023-05-16T21:41:10.344Z,10.77
2023-05-16T21:43:35.047Z,10.57
2023-05-16T21:45:59.639Z,11.52
2023-05-16T21:48:24.557Z,10.57
2023-05-16T21:50:49.352Z,10.15
2023-05-16T21:53:14.514Z,10.13
2023-05-16T21:55:39.282Z,10.80
2023-05-16T21:58:06.149Z,11.23
2023-05-16T22:00:30.950Z,11.23
2023-05-16T22:02:56.228Z,10.38
2023-05-16T22:05:21.019Z,11.38
2023-05-16T22:07:45.839Z,11.15
2023-05-16T22:10:11.820Z,11.52
2023-05-16T22:12:36.501Z,9.98
2023-05-16T22:15:02.564Z,10.75
2023-05-16T22:17:32.356Z,10.77
2023-05-16T22:19:57.043Z,10.65
2023-05-16T22:22:21.750Z,11.57
2023-05-16T22:24:46.840Z,11.73
2023-05-16T22:27:11.749Z,11.68
2023-05-16T22:29:39.073Z,11.45
2023-05-16T22:32:06.325Z,10.98
2023-05-16T22:34:30.913Z,10.68
2023-05-16T22:36:55.660Z,11.25
2023-05-16T22:39:20.635Z,10.98
2023-05-16T22:41:45.258Z,11.63
2023-05-16T22:44:10.090Z,10.75
2023-05-16T22:46:34.630Z,10.75
2023-05-16T22:49:00.873Z,11.98
2023-05-16T22:51:25.771Z,11.32
2023-05-16T22:53:52.916Z,12.18
2023-05-16T22:56:17.518Z,11.13
2023-05-16T22:58:42.113Z,12.32
2023-05-16T23:01:14.994Z,11.90
2023-05-16T23:03:40.008Z,12.02
2023-05-16T23:06:06.605Z,12.00
2023-05-16T23:08:31.220Z,11.52
2023-05-16T23:10:56.223Z,11.77
2023-05-16T23:13:20.711Z,11.45
2023-05-16T23:15:45.348Z,11.65
2023-05-16T23:18:10.099Z,11.07
2023-05-16T23:20:35.018Z,10.65
2023-05-16T23:23:01.236Z,11.85
2023-05-16T23:25:26.177Z,12.13
2023-05-16T23:27:51.449Z,12.93
2023-05-16T23:30:16.948Z,11.57
2023-05-16T23:32:41.980Z,9.88
2023-05-16T23:35:07.559Z,11.10
2023-05-16T23:37:32.281Z,10.52
2023-05-16T23:39:58.268Z,10.52
2023-05-16T23:42:22.916Z,9.77
2023-05-16T23:44:47.754Z,10.60
2023-05-16T23:47:12.367Z,11.57
2023-05-16T23:49:37.005Z,10.93
2023-05-16T23:52:01.614Z,10.20
2023-05-16T23:54:26.491Z,10.85
2023-05-16T23:56:52.974Z,10.77
2023-05-16T23:59:19.126Z,10.20
